Terminal Aerodrome Forecast
Issued by NWS Charleston, WV

Current Version | Previous Version | Text Only | Print | Product List | Glossary Off
Versions: 1 2 3 4 5 6 7 8 9 10 11 12 13 14 15 16 17 18 19 20 21 22 23 24 25 26 27 28

000
FTUS41 KRLX 302320
TAFCRW
TAF
KCRW 302320Z 3100/3124 35007KT P6SM FEW070 SCT250
     FM310830 00000KT 2SM BR FEW250
     FM310900 00000KT 1/2SM FG VV001
     FM311300 00000KT 4SM BR SCT002
     FM311400 00000KT P6SM FEW050=

USA.gov is the U.S. government's official web portal to all federal, state and local government web resources and services.